sensor_id;sensor_type;location;lat;lon;timestamp;pressure;altitude;pressure_sealevel;temperature;humidity
47710;BME280;33473;51.640;5.892;2023-02-22T00:05:45;101400;;;12.5;56.0
47710;BME280;33473;51.640;5.892;2023-02-22T00:19:05;101400;;;12.6;55.0
47710;BME280;33473;51.640;5.892;2023-02-22T00:32:24;101400;;;12.7;55.0
47710;BME280;33473;51.640;5.892;2023-02-22T00:45:44;101400;;;12.6;54.0
47710;BME280;33473;51.640;5.892;2023-02-22T00:59:04;101400;;;12.7;54.0
47710;BME280;33473;51.640;5.892;2023-02-22T01:12:23;101400;;;12.5;55.0
47710;BME280;33473;51.640;5.892;2023-02-22T01:25:43;101400;;;12.4;54.0
47710;BME280;33473;51.640;5.892;2023-02-22T01:39:03;101400;;;12.1;54.0
47710;BME280;33473;51.640;5.892;2023-02-22T01:52:22;101400;;;12.1;54.0
47710;BME280;33473;51.640;5.892;2023-02-22T02:05:42;101400;;;11.5;55.0
47710;BME280;33473;51.640;5.892;2023-02-22T02:19:02;101300;;;11.4;55.0
47710;BME280;33473;51.640;5.892;2023-02-22T02:32:21;101300;;;11.3;56.0
47710;BME280;33473;51.640;5.892;2023-02-22T02:45:41;101300;;;11.2;57.0
47710;BME280;33473;51.640;5.892;2023-02-22T02:59:01;101300;;;11.4;56.0
47710;BME280;33473;51.640;5.892;2023-02-22T03:12:20;101300;;;11.6;56.0
47710;BME280;33473;51.640;5.892;2023-02-22T03:25:40;101300;;;11.5;57.0
47710;BME280;33473;51.640;5.892;2023-02-22T03:39:00;101300;;;11.7;56.0
47710;BME280;33473;51.640;5.892;2023-02-22T03:52:19;101300;;;11.7;57.0
47710;BME280;33473;51.640;5.892;2023-02-22T04:05:39;101300;;;11.6;57.0
47710;BME280;33473;51.640;5.892;2023-02-22T04:18:59;101200;;;11.6;57.0
47710;BME280;33473;51.640;5.892;2023-02-22T04:32:18;101200;;;11.6;57.0
47710;BME280;33473;51.640;5.892;2023-02-22T04:45:38;101200;;;11.7;58.0
47710;BME280;33473;51.640;5.892;2023-02-22T04:58:58;101200;;;11.4;59.0
47710;BME280;33473;51.640;5.892;2023-02-22T05:12:18;101200;;;11.5;59.0
47710;BME280;33473;51.640;5.892;2023-02-22T05:25:37;101200;;;11.5;59.0
47710;BME280;33473;51.640;5.892;2023-02-22T05:38:57;101200;;;11.7;59.0
47710;BME280;33473;51.640;5.892;2023-02-22T05:52:17;101200;;;11.6;59.0
47710;BME280;33473;51.640;5.892;2023-02-22T06:05:36;101200;;;11.6;59.0
47710;BME280;33473;51.640;5.892;2023-02-22T06:18:56;101100;;;11.5;59.0
47710;BME280;33473;51.640;5.892;2023-02-22T06:32:16;101100;;;11.3;59.0
47710;BME280;33473;51.640;5.892;2023-02-22T06:45:35;101100;;;11.2;60.0
47710;BME280;33473;51.640;5.892;2023-02-22T06:58:55;101100;;;11.3;60.0
47710;BME280;33473;51.640;5.892;2023-02-22T07:12:15;101100;;;11.3;60.0
47710;BME280;33473;51.640;5.892;2023-02-22T07:25:34;101100;;;11.5;60.0
47710;BME280;33473;51.640;5.892;2023-02-22T07:38:54;101100;;;11.1;61.0
47710;BME280;33473;51.640;5.892;2023-02-22T07:52:14;101100;;;11.5;61.0
47710;BME280;33473;51.640;5.892;2023-02-22T08:05:33;101100;;;11.7;60.0
47710;BME280;33473;51.640;5.892;2023-02-22T08:18:53;101100;;;12.0;59.0
47710;BME280;33473;51.640;5.892;2023-02-22T08:32:13;101100;;;12.2;59.0
47710;BME280;33473;51.640;5.892;2023-02-22T08:45:32;101100;;;12.1;58.0
47710;BME280;33473;51.640;5.892;2023-02-22T08:58:52;101100;;;12.4;57.0
47710;BME280;33473;51.640;5.892;2023-02-22T09:12:12;101100;;;12.3;57.0
47710;BME280;33473;51.640;5.892;2023-02-22T09:25:32;101100;;;13.3;56.0
47710;BME280;33473;51.640;5.892;2023-02-22T09:38:51;101100;;;14.0;54.0
47710;BME280;33473;51.640;5.892;2023-02-22T09:52:11;101100;;;14.5;51.0
47710;BME280;33473;51.640;5.892;2023-02-22T10:05:31;101100;;;14.7;50.0
47710;BME280;33473;51.640;5.892;2023-02-22T10:18:50;101000;;;14.5;51.0
47710;BME280;33473;51.640;5.892;2023-02-22T10:32:10;101000;;;15.7;49.0
47710;BME280;33473;51.640;5.892;2023-02-22T10:45:30;101000;;;16.6;46.0
47710;BME280;33473;51.640;5.892;2023-02-22T10:58:49;101000;;;17.1;46.0
47710;BME280;33473;51.640;5.892;2023-02-22T11:12:09;101000;;;18.3;43.0
47710;BME280;33473;51.640;5.892;2023-02-22T11:25:29;101000;;;19.2;40.0
47710;BME280;33473;51.640;5.892;2023-02-22T11:38:49;101000;;;19.5;39.0
47710;BME280;33473;51.640;5.892;2023-02-22T11:52:08;101000;;;19.7;38.0
47710;BME280;33473;51.640;5.892;2023-02-22T12:05:28;101000;;;20.0;37.0
47710;BME280;33473;51.640;5.892;2023-02-22T12:18:48;101000;;;20.2;37.0
47710;BME280;33473;51.640;5.892;2023-02-22T12:32:07;101000;;;20.2;36.0
47710;BME280;33473;51.640;5.892;2023-02-22T12:45:27;100900;;;19.8;37.0
47710;BME280;33473;51.640;5.892;2023-02-22T12:58:47;100900;;;19.9;38.0
47710;BME280;33473;51.640;5.892;2023-02-22T13:12:09;101000;;;20.1;39.0
47710;BME280;33473;51.640;5.892;2023-02-22T13:25:28;100900;;;19.9;38.0
47710;BME280;33473;51.640;5.892;2023-02-22T13:38:48;100900;;;19.8;39.0
47710;BME280;33473;51.640;5.892;2023-02-22T13:52:08;100900;;;19.7;39.0
47710;BME280;33473;51.640;5.892;2023-02-22T14:05:27;100900;;;19.3;39.0
47710;BME280;33473;51.640;5.892;2023-02-22T14:18:47;100900;;;18.9;40.0
47710;BME280;33473;51.640;5.892;2023-02-22T14:32:07;100900;;;18.5;43.0
47710;BME280;33473;51.640;5.892;2023-02-22T14:45:26;101000;;;18.3;45.0
47710;BME280;33473;51.640;5.892;2023-02-22T14:58:46;101000;;;18.0;46.0
47710;BME280;33473;51.640;5.892;2023-02-22T15:12:06;101000;;;17.6;48.0
47710;BME280;33473;51.640;5.892;2023-02-22T15:25:25;101000;;;17.0;51.0
47710;BME280;33473;51.640;5.892;2023-02-22T15:38:45;101000;;;16.6;52.0
47710;BME280;33473;51.640;5.892;2023-02-22T15:52:05;101000;;;16.4;53.0
47710;BME280;33473;51.640;5.892;2023-02-22T16:05:24;101000;;;16.3;54.0
47710;BME280;33473;51.640;5.892;2023-02-22T16:18:44;101000;;;16.1;54.0
47710;BME280;33473;51.640;5.892;2023-02-22T16:32:04;101000;;;15.9;54.0
47710;BME280;33473;51.640;5.892;2023-02-22T16:45:23;101000;;;15.8;55.0
47710;BME280;33473;51.640;5.892;2023-02-22T16:58:43;101000;;;15.6;55.0
47710;BME280;33473;51.640;5.892;2023-02-22T17:12:03;101000;;;15.5;55.0
47710;BME280;33473;51.640;5.892;2023-02-22T17:25:22;101000;;;15.4;55.0
47710;BME280;33473;51.640;5.892;2023-02-22T17:38:42;101000;;;15.3;55.0
47710;BME280;33473;51.640;5.892;2023-02-22T17:52:02;101100;;;15.2;56.0
47710;BME280;33473;51.640;5.892;2023-02-22T18:05:21;101100;;;15.2;56.0
47710;BME280;33473;51.640;5.892;2023-02-22T18:18:41;101100;;;15.2;56.0
47710;BME280;33473;51.640;5.892;2023-02-22T18:32:01;101100;;;15.3;56.0
47710;BME280;33473;51.640;5.892;2023-02-22T18:45:20;101100;;;15.2;56.0
47710;BME280;33473;51.640;5.892;2023-02-22T18:58:40;101100;;;15.2;56.0
47710;BME280;33473;51.640;5.892;2023-02-22T19:12:00;101100;;;15.2;56.0
47710;BME280;33473;51.640;5.892;2023-02-22T19:25:20;101100;;;15.3;56.0
47710;BME280;33473;51.640;5.892;2023-02-22T19:38:39;101100;;;15.2;56.0
47710;BME280;33473;51.640;5.892;2023-02-22T19:51:59;101100;;;15.0;57.0
47710;BME280;33473;51.640;5.892;2023-02-22T20:05:19;101100;;;14.5;58.0
47710;BME280;33473;51.640;5.892;2023-02-22T20:18:38;101100;;;13.9;60.0
47710;BME280;33473;51.640;5.892;2023-02-22T20:31:58;101100;;;14.4;59.0
47710;BME280;33473;51.640;5.892;2023-02-22T20:45:18;101100;;;13.6;60.0
47710;BME280;33473;51.640;5.892;2023-02-22T20:58:37;101100;;;14.1;59.0
47710;BME280;33473;51.640;5.892;2023-02-22T21:11:57;101100;;;13.9;59.0
47710;BME280;33473;51.640;5.892;2023-02-22T21:25:17;101100;;;13.8;59.0
47710;BME280;33473;51.640;5.892;2023-02-22T21:38:36;101100;;;14.0;58.0
47710;BME280;33473;51.640;5.892;2023-02-22T21:51:56;101100;;;14.1;58.0
47710;BME280;33473;51.640;5.892;2023-02-22T22:05:16;101100;;;14.5;57.0
47710;BME280;33473;51.640;5.892;2023-02-22T22:18:36;101100;;;14.7;56.0
47710;BME280;33473;51.640;5.892;2023-02-22T22:31:55;101100;;;14.8;56.0
47710;BME280;33473;51.640;5.892;2023-02-22T22:45:15;101100;;;14.7;56.0
47710;BME280;33473;51.640;5.892;2023-02-22T22:58:35;101100;;;14.8;56.0
47710;BME280;33473;51.640;5.892;2023-02-22T23:11:54;101100;;;14.8;56.0
47710;BME280;33473;51.640;5.892;2023-02-22T23:25:14;101100;;;14.8;56.0
47710;BME280;33473;51.640;5.892;2023-02-22T23:38:34;101100;;;14.4;56.0
47710;BME280;33473;51.640;5.892;2023-02-22T23:51:53;101100;;;14.3;57.0
